.
WxDataArchive / Data Records for 2008-06-14
2008-06-13 June 2008 2008-06-15

Data Records for Saturday, 14 June 2008

Time	Temp	Chill	HIndex	Humid	Dewpt	 Wind 	HiWind	WindDir	Rain 	Barom 
-----	----	-----	------	-----	-----	------	------	-------	-----	----- 
00:00	70.1	70.1	70.1	88	66.4	1	4	248	0.00	29.913 
00:05	70.1	70.1	70.1	88	66.4	1	5	248	0.00	29.913 
00:10	70.1	70.1	70.1	88	66.4	1	2	248	0.00	29.914 
00:15	70.1	70.1	70.1	88	66.4	1	5	270	0.00	29.913 
00:20	70.1	70.1	70.1	88	66.4	2	5	248	0.00	29.914 
00:25	69.9	69.9	69.9	89	66.5	1	3	248	0.00	29.913 
00:30	69.9	69.9	69.9	89	66.5	1	4	248	0.00	29.907 
00:35	69.8	69.8	69.8	90	66.7	1	5	270	0.00	29.904 
00:40	69.6	69.6	69.6	90	66.5	0	2	270	0.00	29.901 
00:45	69.6	69.6	69.6	90	66.5	1	2	248	0.00	29.900 
00:50	69.4	69.4	69.4	90	66.3	1	3	248	0.00	29.901 
00:55	69.4	69.4	69.4	91	66.7	0	2	248	0.00	29.901 
01:00	69.4	69.4	69.4	91	66.7	0	2	248	0.00	29.894 
01:05	69.3	69.3	69.3	91	66.6	0	3	248	0.00	29.895 
01:10	69.1	69.1	69.1	91	66.4	0	1	248	0.00	29.889 
01:15	69.1	69.1	69.1	91	66.4	0	1	248	0.00	29.887 
01:20	68.9	68.9	68.9	92	66.5	0	1	248	0.00	29.886 
01:25	68.8	68.8	68.8	92	66.4	0	1	248	0.00	29.886 
01:30	68.6	68.6	68.6	92	66.2	0	1	248	0.00	29.886 
01:35	68.6	68.6	68.6	92	66.2	0	1	248	0.00	29.885 
01:40	68.6	68.6	68.6	92	66.2	0	1	248	0.00	29.881 
01:45	68.4	68.4	68.4	92	66.0	0	1	248	0.00	29.883 
01:50	68.4	68.4	68.4	93	66.3	0	1	248	0.00	29.884 
01:55	68.3	68.3	68.3	93	66.2	0	1	248	0.00	29.883 
02:00	68.3	68.3	68.3	93	66.2	0	1	248	0.00	29.886 
02:05	68.3	68.3	68.3	93	66.2	0	1	248	0.00	29.889 
02:10	68.3	68.3	68.3	93	66.2	0	1	248	0.00	29.888 
02:15	68.3	68.3	68.3	93	66.2	0	1	248	0.00	29.888 
02:20	68.1	68.1	68.1	93	66.0	0	1	248	0.00	29.888 
02:25	68.1	68.1	68.1	93	66.0	0	0	---	0.00	29.888 
02:30	67.9	67.9	67.9	93	65.8	0	1	248	0.00	29.889 
02:35	67.9	67.9	67.9	94	66.1	0	1	248	0.00	29.889 
02:40	67.9	67.9	67.9	94	66.1	0	1	248	0.00	29.889 
02:45	67.8	67.8	67.8	94	66.0	0	1	248	0.00	29.889 
02:50	67.8	67.8	67.8	94	66.0	0	1	248	0.00	29.890 
02:55	67.8	67.8	67.8	94	66.0	0	2	248	0.00	29.890 
03:00	67.8	67.8	67.8	94	66.0	0	1	248	0.00	29.890 
03:05	67.8	67.8	67.8	94	66.0	0	1	248	0.00	29.890 
03:10	67.6	67.6	67.6	94	65.8	0	1	248	0.00	29.891 
03:15	67.6	67.6	67.6	94	65.8	0	1	248	0.01	29.892 
03:20	67.6	67.6	67.6	94	65.8	0	1	248	0.00	29.891 
03:25	67.6	67.6	67.6	94	65.8	0	2	248	0.00	29.891 
03:30	67.6	67.6	67.6	94	65.8	0	1	248	0.00	29.892 
03:35	67.4	67.4	67.4	94	65.6	0	1	248	0.00	29.897 
03:40	67.4	67.4	67.4	94	65.6	0	2	248	0.00	29.899 
03:45	67.4	67.4	67.4	94	65.6	0	1	248	0.00	29.897 
03:50	67.4	67.4	67.4	94	65.6	0	1	248	0.00	29.899 
03:55	67.4	67.4	67.4	94	65.6	0	1	248	0.00	29.904 
04:00	67.3	67.3	67.3	94	65.5	0	1	248	0.00	29.902 
04:05	67.3	67.3	67.3	94	65.5	0	0	---	0.00	29.899 
04:10	67.3	67.3	67.3	94	65.5	0	2	248	0.00	29.899 
04:15	67.3	67.3	67.3	94	65.5	0	1	248	0.00	29.900 
04:20	67.3	67.3	67.3	94	65.5	0	1	248	0.00	29.903 
04:25	67.1	67.1	67.1	94	65.3	0	1	248	0.00	29.904 
04:30	67.1	67.1	67.1	94	65.3	0	0	---	0.00	29.904 
04:35	66.9	66.9	66.9	94	65.1	0	1	248	0.00	29.904 
04:40	66.9	66.9	66.9	94	65.1	0	1	248	0.00	29.905 
04:45	66.9	66.9	66.9	94	65.1	0	1	248	0.00	29.906 
04:50	66.8	66.8	66.8	94	65.0	0	0	---	0.00	29.906 
04:55	66.8	66.8	66.8	94	65.0	0	0	---	0.00	29.907 
05:00	66.6	66.6	66.6	94	64.8	0	0	---	0.00	29.909 
05:05	66.4	66.4	66.4	94	64.6	0	0	---	0.00	29.914 
05:10	66.3	66.3	66.3	94	64.5	0	0	---	0.00	29.914 
05:15	66.3	66.3	66.3	94	64.5	0	0	---	0.00	29.914 
05:20	66.1	66.1	66.1	95	64.6	0	0	---	0.00	29.914 
05:25	66.0	66.0	66.0	95	64.5	0	0	---	0.00	29.915 
05:30	65.8	65.8	65.8	95	64.3	0	0	---	0.00	29.917 
05:35	65.8	65.8	65.8	95	64.3	0	0	---	0.00	29.915 
05:40	65.6	65.6	65.6	95	64.1	0	0	---	0.00	29.920 
05:45	65.5	65.5	65.5	95	64.0	0	0	---	0.00	29.922 
05:50	65.3	65.3	65.3	95	63.8	0	0	---	0.00	29.922 
05:55	65.3	65.3	65.3	95	63.8	0	0	---	0.00	29.922 
06:00	65.2	65.2	65.2	95	63.7	0	0	---	0.00	29.924 
06:05	65.2	65.2	65.2	95	63.7	0	0	---	0.00	29.925 
06:10	65.0	65.0	65.0	95	63.5	0	0	---	0.00	29.925 
06:15	65.0	65.0	65.0	95	63.5	0	0	---	0.00	29.925 
06:20	65.0	65.0	65.0	95	63.5	0	0	---	0.00	29.926 
06:25	65.0	65.0	65.0	95	63.5	0	0	---	0.00	29.927 
06:30	65.2	65.2	65.2	95	63.7	0	0	---	0.00	29.929 
06:35	65.6	65.6	65.6	96	64.4	0	1	248	0.00	29.931 
06:40	66.0	66.0	66.0	95	64.5	0	1	248	0.00	29.931 
06:45	66.3	66.3	66.3	95	64.8	0	2	248	0.00	29.933 
06:50	66.4	66.4	66.4	95	64.9	0	1	248	0.00	29.934 
06:55	66.8	66.8	66.8	94	65.0	0	2	248	0.00	29.937 
07:00	67.1	67.1	67.1	93	65.0	0	2	270	0.00	29.938 
07:05	67.6	67.6	67.6	92	65.2	0	3	270	0.00	29.941 
07:10	67.9	67.9	67.9	89	64.5	0	3	248	0.00	29.941 
07:15	68.3	68.3	68.3	85	63.6	0	2	248	0.00	29.942 
07:20	68.8	68.8	68.8	83	63.4	0	1	248	0.00	29.944 
07:25	69.1	69.1	69.1	82	63.4	0	2	248	0.00	29.943 
07:30	69.4	69.4	69.4	79	62.6	0	1	248	0.00	29.944 
07:35	69.8	69.8	69.8	78	62.6	0	1	248	0.00	29.944 
07:40	70.1	70.1	70.1	74	61.4	0	2	248	0.00	29.950 
07:45	70.4	70.4	70.4	73	61.3	0	1	248	0.00	29.951 
07:50	70.9	70.9	70.9	71	61.0	0	1	248	0.00	29.951 
07:55	71.3	71.3	71.3	69	60.6	0	2	248	0.00	29.952 
08:00	71.8	71.8	71.8	69	61.1	0	1	248	0.00	29.948 
08:05	71.8	71.8	71.8	65	59.4	1	2	270	0.00	29.949 
08:10	71.8	71.8	71.8	63	58.5	1	3	270	0.00	29.950 
08:15	71.8	71.8	71.8	63	58.5	1	2	270	0.00	29.952 
08:20	72.1	72.1	72.1	62	58.3	1	2	270	0.00	29.952 
08:25	72.5	72.5	72.5	65	60.0	0	1	270	0.00	29.952 
08:30	73.0	73.0	73.0	62	59.2	0	1	270	0.00	29.952 
08:35	73.3	73.3	73.3	58	57.6	1	3	225	0.00	29.953 
08:40	73.2	73.2	73.2	56	56.5	1	3	292	0.00	29.953 
08:45	73.3	73.3	73.3	55	56.1	1	2	292	0.00	29.953 
08:50	73.9	73.9	73.9	55	56.7	0	1	292	0.00	29.952 
08:55	74.0	74.0	74.0	53	55.8	0	2	292	0.00	29.952 
09:00	74.2	74.2	74.2	52	55.4	0	2	292	0.00	29.953 
09:05	74.4	74.4	74.4	50	54.5	0	2	292	0.00	29.954 
09:10	74.4	74.4	74.4	50	54.5	1	2	292	0.00	29.954 
09:15	74.7	74.7	74.7	51	55.4	0	2	292	0.00	29.954 
09:20	74.9	74.9	74.9	48	53.9	1	2	292	0.00	29.954 
09:25	75.1	75.1	77.7	51	55.7	1	2	292	0.00	29.955 
09:30	75.4	75.4	77.8	46	53.2	1	2	315	0.00	29.956 
09:35	75.4	75.4	77.7	44	52.0	1	4	315	0.00	29.955 
09:40	75.8	75.8	77.9	47	54.1	0	2	292	0.00	29.957 
09:45	75.8	75.8	77.9	44	52.3	1	2	292	0.00	29.954 
09:50	76.1	76.1	78.1	47	54.4	0	2	292	0.00	29.955 
09:55	76.5	76.5	78.2	44	52.9	1	3	0	0.00	29.957 
10:00	76.3	76.3	78.1	44	52.8	1	2	0	0.00	29.960 
10:05	76.3	76.3	78.1	46	54.0	1	2	338	0.00	29.962 
10:10	76.5	76.5	78.1	43	52.3	0	1	338	0.00	29.962 
10:15	76.7	76.7	78.3	45	53.7	1	3	315	0.00	29.963 
10:20	77.2	77.2	78.5	44	53.6	0	2	315	0.00	29.964 
10:25	77.4	77.4	78.5	41	51.8	1	2	315	0.00	29.964 
10:30	77.2	77.2	78.4	42	52.3	0	2	315	0.00	29.964 
10:35	77.2	77.2	78.5	44	53.6	0	3	315	0.00	29.965 
10:40	77.6	77.6	78.8	46	55.2	1	3	22	0.00	29.963 
10:45	77.7	77.7	78.7	42	52.8	1	3	292	0.00	29.962 
10:50	77.7	77.7	78.6	41	52.1	1	3	292	0.00	29.963 
10:55	77.7	77.7	78.7	42	52.8	1	2	315	0.00	29.965 
11:00	78.1	78.1	78.9	42	53.1	0	3	315	0.00	29.964 
11:05	78.3	78.3	79.2	45	55.2	0	1	315	0.00	29.963 
11:10	78.5	78.5	78.8	37	50.0	1	3	292	0.00	29.963 
11:15	78.6	78.6	79.0	39	51.5	1	3	270	0.00	29.963 
11:20	78.8	78.8	79.2	41	53.1	0	2	270	0.00	29.961 
11:25	79.4	79.4	79.4	38	51.6	0	2	270	0.00	29.961 
11:30	79.6	79.6	79.3	35	49.5	0	2	270	0.00	29.959 
11:35	79.4	79.4	79.2	36	50.1	1	5	270	0.00	29.963 
11:40	79.4	79.4	79.2	36	50.1	0	4	248	0.00	29.965 
11:45	79.8	79.8	80.0	43	55.3	0	2	315	0.00	29.961 
11:50	80.1	80.1	80.1	41	54.2	1	2	315	0.00	29.963 
11:55	80.3	80.3	79.7	35	50.1	0	2	315	0.00	29.962 
12:00	79.9	79.9	79.5	35	49.8	0	1	315	0.00	29.961 
12:05	79.8	79.8	79.6	37	51.2	1	3	338	0.00	29.963 
12:10	79.8	79.8	80.0	42	54.6	0	3	270	0.00	29.961 
12:15	80.1	80.1	79.6	35	50.0	1	2	270	0.00	29.956 
12:20	80.3	80.3	79.8	36	50.9	0	2	315	0.00	29.957 
12:25	80.3	80.3	79.8	36	50.9	1	2	270	0.00	29.958 
12:30	80.1	80.1	79.7	36	50.7	0	2	270	0.00	29.956 
12:35	80.1	80.1	79.7	36	50.7	0	2	270	0.00	29.953 
12:40	79.9	79.9	79.3	33	48.2	0	2	315	0.00	29.951 
12:45	80.3	80.3	79.7	35	50.1	1	2	315	0.00	29.951 
12:50	80.7	80.7	79.8	32	48.1	1	2	270	0.00	29.950 
12:55	80.5	80.5	79.8	34	49.5	0	2	315	0.00	29.951 
13:00	80.5	80.5	79.7	33	48.7	0	3	90	0.00	29.948 
13:05	80.7	80.7	80.0	35	50.5	1	4	270	0.00	29.950 
13:10	80.5	80.5	79.9	35	50.3	1	4	270	0.00	29.949 
13:15	80.7	80.7	80.0	35	50.5	0	3	270	0.00	29.949 
13:20	80.7	80.7	80.3	39	53.4	0	1	270	0.00	29.947 
13:25	81.1	81.1	80.4	37	52.3	0	3	270	0.00	29.946 
13:30	81.1	81.1	80.0	32	48.4	1	3	270	0.00	29.948 
13:35	81.1	81.1	80.4	36	51.6	2	5	248	0.00	29.948 
13:40	80.7	80.7	79.8	33	48.9	1	3	248	0.00	29.948 
13:45	80.9	80.9	80.1	34	49.9	1	3	338	0.00	29.949 
13:50	81.2	81.2	80.3	35	50.9	0	3	270	0.00	29.948 
13:55	81.4	81.4	80.1	31	47.8	1	4	270	0.00	29.945 
14:00	81.6	81.6	80.3	31	48.0	1	5	248	0.00	29.940 
14:05	81.4	81.4	80.2	32	48.7	1	3	270	0.00	29.939 
14:10	81.4	81.4	80.2	32	48.7	1	3	292	0.00	29.938 
14:15	81.4	81.4	80.5	35	51.1	1	3	270	0.00	29.938 
14:20	81.6	81.6	80.3	31	48.0	2	3	225	0.00	29.936 
14:25	81.8	81.8	80.5	32	49.0	1	3	225	0.00	29.934 
14:30	81.6	81.6	80.1	29	46.2	1	3	315	0.00	29.934 
14:35	81.6	81.6	80.3	31	48.0	1	3	248	0.00	29.934 
14:40	81.6	81.6	80.8	37	52.8	0	3	338	0.00	29.932 
14:45	81.8	81.8	80.4	31	48.2	1	5	270	0.00	29.933 
14:50	82.0	82.0	80.7	32	49.2	1	2	270	0.00	29.931 
14:55	82.4	82.4	81.2	35	52.0	0	2	202	0.00	29.930 
15:00	82.2	82.2	80.8	32	49.4	1	2	338	0.00	29.929 
15:05	82.0	82.0	80.6	31	48.4	1	3	338	0.00	29.929 
15:10	81.8	81.8	80.5	32	49.0	0	2	338	0.00	29.928 
15:15	81.8	81.8	80.3	30	47.3	0	2	338	0.00	29.924 
15:20	82.0	82.0	80.5	30	47.5	0	1	338	0.00	29.921 
15:25	82.0	82.0	80.6	31	48.4	1	4	270	0.00	29.920 
15:30	82.0	82.0	80.5	30	47.5	0	2	270	0.00	29.920 
15:35	82.2	82.2	80.6	30	47.7	0	2	270	0.00	29.919 
15:40	81.8	81.8	80.2	28	45.5	1	2	338	0.00	29.919 
15:45	81.8	81.8	80.3	30	47.3	0	3	68	0.00	29.918 
15:50	82.0	82.0	80.7	32	49.2	0	1	68	0.00	29.916 
15:55	81.8	81.8	80.5	32	49.0	1	3	0	0.00	29.916 
16:00	81.8	81.8	80.3	30	47.3	1	2	270	0.00	29.914 
16:05	82.2	82.2	80.7	31	48.5	0	2	270	0.00	29.913 
16:10	82.4	82.4	80.7	29	46.9	0	2	270	0.00	29.911 
16:15	82.6	82.6	80.7	27	45.2	1	3	270	0.00	29.907 
16:20	82.4	82.4	80.7	29	46.9	0	2	270	0.00	29.906 
16:25	82.4	82.4	80.8	30	47.8	1	3	248	0.00	29.904 
16:30	82.4	82.4	80.6	28	46.0	0	1	248	0.00	29.903 
16:35	82.2	82.2	80.5	29	46.8	0	1	248	0.00	29.903 
16:40	82.0	82.0	80.4	29	46.6	0	1	248	0.00	29.903 
16:45	82.0	82.0	80.5	30	47.5	0	1	248	0.00	29.902 
16:50	82.2	82.2	80.5	29	46.8	0	2	248	0.00	29.902 
16:55	82.2	82.2	80.5	28	45.8	1	2	248	0.00	29.902 
17:00	82.4	82.4	80.9	31	48.7	0	1	248	0.00	29.900 
17:05	82.2	82.2	80.5	29	46.8	0	1	248	0.00	29.898 
17:10	81.8	81.8	80.2	28	45.5	0	1	338	0.00	29.897 
17:15	81.6	81.6	80.3	31	48.0	0	1	338	0.00	29.897 
17:20	81.4	81.4	80.2	32	48.7	1	2	338	0.00	29.897 
17:25	81.2	81.2	80.0	31	47.7	1	3	315	0.00	29.895 
17:30	81.1	81.1	80.0	32	48.4	0	1	292	0.00	29.891 
17:35	80.9	80.9	80.0	33	49.1	0	2	292	0.00	29.891 
17:40	80.7	80.7	79.8	32	48.1	0	2	292	0.00	29.890 
17:45	80.3	80.3	79.4	31	46.9	0	2	315	0.00	29.890 
17:50	80.3	80.3	79.6	33	48.5	0	2	225	0.00	29.891 
17:55	80.1	80.1	79.3	31	46.7	0	1	225	0.00	29.890 
18:00	80.1	80.1	79.5	33	48.4	0	2	225	0.00	29.891 
18:05	79.9	79.9	79.2	31	46.5	0	1	225	0.00	29.890 
18:10	79.9	79.9	79.4	34	49.0	0	1	225	0.00	29.889 
18:15	79.8	79.8	79.3	34	48.9	0	1	225	0.00	29.889 
18:20	79.6	79.6	79.2	33	47.9	0	1	225	0.00	29.887 
18:25	79.4	79.4	79.0	33	47.8	0	0	---	0.00	29.888 
18:30	79.6	79.6	79.3	35	49.5	0	1	225	0.00	29.888 
18:35	79.4	79.4	79.1	34	48.6	0	1	225	0.00	29.888 
18:40	79.6	79.6	79.2	34	48.7	0	1	225	0.00	29.889 
18:45	79.4	79.4	79.1	34	48.6	0	0	---	0.00	29.888 
18:50	79.2	79.2	79.1	36	49.9	0	0	---	0.00	29.891 
18:55	79.0	79.0	79.0	35	49.0	0	0	---	0.00	29.890 
19:00	78.8	78.8	79.0	37	50.3	0	0	---	0.00	29.889 
19:05	78.6	78.6	78.9	38	50.8	0	0	---	0.00	29.887 
19:10	78.3	78.3	78.8	38	50.6	0	0	---	0.00	29.888 
19:15	77.9	77.9	78.6	38	50.2	0	1	225	0.00	29.890 
19:20	77.7	77.7	78.5	39	50.7	0	0	---	0.00	29.887 
19:25	77.4	77.4	78.4	39	50.5	0	0	---	0.00	29.890 
19:30	77.0	77.0	78.2	40	50.8	0	0	---	0.00	29.888 
19:35	76.7	76.7	78.1	41	51.2	0	0	---	0.00	29.888 
19:40	76.3	76.3	78.0	42	51.5	0	0	---	0.00	29.887 
19:45	75.8	75.8	77.8	43	51.7	0	0	---	0.00	29.887 
19:50	75.4	75.4	77.7	44	52.0	0	0	---	0.00	29.887 
19:55	75.1	75.1	77.7	46	52.9	0	0	---	0.00	29.888 
20:00	74.4	74.4	74.4	47	52.8	0	0	---	0.00	29.888 
20:05	73.7	73.7	73.7	47	52.2	0	0	---	0.00	29.888 
20:10	73.2	73.2	73.2	47	51.7	0	0	---	0.00	29.888 
20:15	72.8	72.8	72.8	49	52.5	0	0	---	0.00	29.888 
20:20	72.3	72.3	72.3	51	53.1	0	0	---	0.00	29.887 
20:25	72.0	72.0	72.0	52	53.4	0	0	---	0.00	29.888 
20:30	71.5	71.5	71.5	51	52.4	0	0	---	0.00	29.891 
20:35	71.1	71.1	71.1	52	52.6	0	0	---	0.00	29.890 
20:40	70.8	70.8	70.8	53	52.8	0	0	---	0.00	29.890 
20:45	70.3	70.3	70.3	52	51.8	0	0	---	0.00	29.893 
20:50	70.1	70.1	70.1	53	52.2	0	0	---	0.00	29.894 
20:55	69.8	69.8	69.8	54	52.4	0	0	---	0.00	29.900 
21:00	69.6	69.6	69.6	55	52.7	0	0	---	0.00	29.905 
21:05	69.1	69.1	69.1	55	52.2	0	0	---	0.00	29.906 
21:10	68.9	68.9	68.9	56	52.5	0	0	---	0.00	29.906 
21:15	68.8	68.8	68.8	57	52.9	0	1	225	0.00	29.907 
21:20	68.4	68.4	68.4	57	52.6	0	0	---	0.00	29.908 
21:25	68.1	68.1	68.1	58	52.8	0	0	---	0.00	29.910 
21:30	67.9	67.9	67.9	58	52.6	0	1	225	0.00	29.913 
21:35	68.1	68.1	68.1	57	52.3	0	0	---	0.00	29.911 
21:40	68.1	68.1	68.1	56	51.8	0	0	---	0.00	29.914 
21:45	68.1	68.1	68.1	56	51.8	0	0	---	0.00	29.916 
21:50	67.9	67.9	67.9	57	52.1	0	0	---	0.00	29.913 
21:55	67.8	67.8	67.8	58	52.5	0	0	---	0.00	29.913 
22:00	67.6	67.6	67.6	58	52.3	0	0	---	0.00	29.908 
22:05	67.6	67.6	67.6	58	52.3	0	0	---	0.00	29.906 
22:10	67.4	67.4	67.4	59	52.6	0	0	---	0.00	29.908 
22:15	67.3	67.3	67.3	59	52.5	0	0	---	0.00	29.906 
22:20	67.1	67.1	67.1	60	52.7	0	0	---	0.00	29.906 
22:25	66.9	66.9	66.9	61	53.0	0	0	---	0.00	29.906 
22:30	66.6	66.6	66.6	62	53.2	0	0	---	0.00	29.905 
22:35	66.3	66.3	66.3	62	52.9	0	0	---	0.00	29.906 
22:40	66.1	66.1	66.1	63	53.1	0	0	---	0.00	29.906 
22:45	66.0	66.0	66.0	64	53.5	0	1	225	0.00	29.905 
22:50	65.8	65.8	65.8	65	53.7	0	0	---	0.00	29.904 
22:55	65.6	65.6	65.6	65	53.5	0	0	---	0.00	29.905 
23:00	65.6	65.6	65.6	66	53.9	0	0	---	0.00	29.906 
23:05	65.6	65.6	65.6	65	53.5	0	1	225	0.00	29.905 
23:10	65.6	65.6	65.6	65	53.5	0	0	---	0.00	29.904 
23:15	65.6	65.6	65.6	64	53.1	0	0	---	0.00	29.903 
23:20	65.8	65.8	65.8	66	54.1	0	0	---	0.00	29.904 
23:25	65.8	65.8	65.8	66	54.1	0	0	---	0.00	29.902 
23:30	65.8	65.8	65.8	65	53.7	0	0	---	0.00	29.898 
23:35	65.8	65.8	65.8	65	53.7	0	0	---	0.00	29.897 
23:40	66.0	66.0	66.0	65	53.9	0	1	225	0.00	29.900 
23:45	66.1	66.1	66.1	64	53.6	0	1	225	0.00	29.897 
23:50	66.3	66.3	66.3	65	54.2	0	0	---	0.00	29.896 
23:55	66.4	66.4	66.4	64	53.8	0	1	225	0.00	29.897 

CoCoRaHS
IN-AL-39
A2 Web Hosting
Creative Commons License
GoDaddy
Look for:

loaded 2017-12-13 02:46:55 • last modified 2010-11-18 10:43:29
Privacy PolicyDisclaimer
• wx.awcolley.com is powered by PmWiki v.2002016 •
• all content (unless otherwise noted) © 2017 A W Colley